createdAt,value
2022-08-24T00:02:08.036Z,99.90
2022-08-24T00:04:38.815Z,99.90
2022-08-24T00:07:13.822Z,99.90
2022-08-24T00:09:50.638Z,99.90
2022-08-24T00:12:17.755Z,99.90
2022-08-24T00:14:44.915Z,99.90
2022-08-24T00:17:12.301Z,99.90
2022-08-24T00:19:39.537Z,99.90
2022-08-24T00:22:06.455Z,99.90
2022-08-24T00:24:34.011Z,99.90
2022-08-24T00:27:00.720Z,99.90
2022-08-24T00:29:27.431Z,99.90
2022-08-24T00:31:54.544Z,99.90
2022-08-24T00:34:21.472Z,99.90
2022-08-24T00:36:48.400Z,99.90
2022-08-24T00:39:15.126Z,99.90
2022-08-24T00:41:47.789Z,99.90
2022-08-24T00:44:16.797Z,99.90
2022-08-24T00:46:48.729Z,99.90
2022-08-24T00:49:40.559Z,99.90
2022-08-24T00:52:29.460Z,99.90
2022-08-24T00:55:01.498Z,99.90
2022-08-24T00:57:33.840Z,99.90
2022-08-24T01:00:12.804Z,99.90
2022-08-24T01:02:43.759Z,99.90
2022-08-24T01:05:12.284Z,99.90
2022-08-24T01:07:40.544Z,99.90
2022-08-24T01:10:16.292Z,99.90
2022-08-24T01:12:48.116Z,99.90
2022-08-24T01:15:29.057Z,99.90
2022-08-24T01:18:15.254Z,99.90
2022-08-24T01:20:46.278Z,99.90
2022-08-24T01:23:40.469Z,99.90
2022-08-24T01:26:10.717Z,99.90
2022-08-24T01:28:40.549Z,99.90
2022-08-24T01:31:08.476Z,99.90
2022-08-24T01:33:35.219Z,99.90
2022-08-24T01:36:09.641Z,99.90
2022-08-24T01:38:36.441Z,99.90
2022-08-24T01:41:04.701Z,99.90
2022-08-24T01:43:31.716Z,99.90
2022-08-24T01:46:04.037Z,99.90
2022-08-24T01:48:31.421Z,99.90
2022-08-24T01:50:58.165Z,99.90
2022-08-24T01:53:25.450Z,99.90
2022-08-24T01:55:52.169Z,99.90
2022-08-24T01:58:18.879Z,99.90
2022-08-24T02:00:45.901Z,99.90
2022-08-24T02:03:12.795Z,99.90
2022-08-24T02:05:39.603Z,99.90
2022-08-24T02:08:06.358Z,99.90
2022-08-24T02:10:33.778Z,99.90
2022-08-24T02:13:00.830Z,99.90
2022-08-24T02:15:40.413Z,99.90
2022-08-24T02:18:15.306Z,99.90
2022-08-24T02:20:42.952Z,99.90
2022-08-24T02:23:09.622Z,99.90
2022-08-24T02:25:36.676Z,99.90
2022-08-24T02:28:03.936Z,99.90
2022-08-24T02:30:31.616Z,99.90
2022-08-24T02:32:59.842Z,99.90
2022-08-24T02:35:28.181Z,99.90
2022-08-24T02:37:54.873Z,99.90
2022-08-24T02:40:22.190Z,99.90
2022-08-24T02:42:48.894Z,99.90
2022-08-24T02:45:15.995Z,99.90
2022-08-24T02:47:42.994Z,99.90
2022-08-24T02:50:12.670Z,99.90
2022-08-24T02:52:39.913Z,99.90
2022-08-24T02:55:11.345Z,99.90
2022-08-24T02:57:38.731Z,99.90
2022-08-24T03:00:10.391Z,99.90
2022-08-24T03:02:37.994Z,99.90
2022-08-24T03:05:05.565Z,99.90
2022-08-24T03:07:32.294Z,99.90
2022-08-24T03:09:58.995Z,99.90
2022-08-24T03:12:25.677Z,99.90
2022-08-24T03:14:52.525Z,99.90
2022-08-24T03:17:19.242Z,99.90
2022-08-24T03:19:46.549Z,99.90
2022-08-24T03:22:13.324Z,99.90
2022-08-24T03:24:40.100Z,99.90
2022-08-24T03:27:07.034Z,99.90
2022-08-24T03:29:35.281Z,99.90
2022-08-24T03:32:02.749Z,99.90
2022-08-24T03:34:29.454Z,99.90
2022-08-24T03:36:56.188Z,99.90
2022-08-24T03:39:22.945Z,99.90
2022-08-24T03:41:49.700Z,99.90
2022-08-24T03:44:19.157Z,99.90
2022-08-24T03:46:48.325Z,99.90
2022-08-24T03:49:15.383Z,99.90
2022-08-24T03:51:42.260Z,99.90
2022-08-24T03:54:10.879Z,99.90
2022-08-24T03:56:37.825Z,99.90
2022-08-24T03:59:07.593Z,99.90
2022-08-24T04:01:34.427Z,99.90
2022-08-24T04:04:01.154Z,99.90
2022-08-24T04:06:28.187Z,99.90
2022-08-24T04:08:55.620Z,99.90
2022-08-24T04:11:25.817Z,99.90
2022-08-24T04:13:56.646Z,99.90
2022-08-24T04:16:24.365Z,99.90
2022-08-24T04:18:51.631Z,99.90
2022-08-24T04:21:30.237Z,99.90
2022-08-24T04:23:57.585Z,99.90
2022-08-24T04:26:44.749Z,99.90
2022-08-24T04:29:14.736Z,99.90
2022-08-24T04:31:43.020Z,99.90
2022-08-24T04:34:10.777Z,99.90
2022-08-24T04:36:39.180Z,99.90
2022-08-24T04:39:06.076Z,99.90
2022-08-24T04:41:32.746Z,99.90
2022-08-24T04:44:01.541Z,99.90
2022-08-24T04:46:29.392Z,99.90
2022-08-24T04:48:56.332Z,99.90
2022-08-24T04:51:23.003Z,99.90
2022-08-24T04:53:51.720Z,99.90
2022-08-24T04:56:24.060Z,99.90
2022-08-24T04:58:52.335Z,99.90
2022-08-24T05:01:22.257Z,99.90
2022-08-24T05:03:51.389Z,99.90
2022-08-24T05:06:20.015Z,99.90
2022-08-24T05:08:47.530Z,99.90
2022-08-24T05:11:17.404Z,99.90
2022-08-24T05:13:44.901Z,99.90
2022-08-24T05:16:14.449Z,99.90
2022-08-24T05:18:41.758Z,99.90
2022-08-24T05:21:13.886Z,99.90
2022-08-24T05:23:43.415Z,99.90
2022-08-24T05:26:17.083Z,99.90
2022-08-24T05:28:44.593Z,99.90
2022-08-24T05:31:15.297Z,99.90
2022-08-24T05:33:42.226Z,99.90
2022-08-24T05:36:21.065Z,99.90
2022-08-24T05:38:49.685Z,99.90
2022-08-24T05:41:17.421Z,99.90
2022-08-24T05:43:44.504Z,99.90
2022-08-24T05:46:12.273Z,99.90
2022-08-24T05:48:39.139Z,99.90
2022-08-24T05:51:07.676Z,99.90
2022-08-24T05:53:34.986Z,99.90
2022-08-24T05:56:07.796Z,99.90
2022-08-24T05:58:34.923Z,99.90
2022-08-24T06:01:10.306Z,99.90
2022-08-24T06:03:38.677Z,99.90
2022-08-24T06:06:08.570Z,99.90
2022-08-24T06:08:41.725Z,99.90
2022-08-24T06:11:09.208Z,99.90
2022-08-24T06:13:36.605Z,99.90
2022-08-24T06:16:25.652Z,99.90
2022-08-24T06:18:53.820Z,99.90
2022-08-24T06:21:28.166Z,99.90
2022-08-24T06:23:55.948Z,99.90
2022-08-24T06:26:41.498Z,99.90
2022-08-24T06:29:09.138Z,99.90
2022-08-24T06:31:41.954Z,99.90
2022-08-24T06:34:10.035Z,99.90
2022-08-24T06:36:36.824Z,99.90
2022-08-24T06:39:06.730Z,99.90
2022-08-24T06:41:36.220Z,99.90
2022-08-24T06:44:03.303Z,99.90
2022-08-24T06:46:32.838Z,99.90
2022-08-24T06:49:00.291Z,99.90
2022-08-24T06:51:27.023Z,99.90
2022-08-24T06:53:56.095Z,99.90
2022-08-24T06:56:23.022Z,99.90
2022-08-24T06:58:50.084Z,99.90
2022-08-24T07:01:20.346Z,99.90
2022-08-24T07:03:47.271Z,99.90
2022-08-24T07:06:14.882Z,99.90
2022-08-24T07:08:43.395Z,99.90
2022-08-24T07:11:11.519Z,99.90
2022-08-24T07:13:38.728Z,99.90
2022-08-24T07:16:05.758Z,99.90
2022-08-24T07:18:32.791Z,99.90
2022-08-24T07:21:03.810Z,99.90
2022-08-24T07:23:41.072Z,99.90
2022-08-24T07:26:20.863Z,99.90
2022-08-24T07:28:59.470Z,99.90
2022-08-24T07:31:26.704Z,99.90
2022-08-24T07:33:53.443Z,99.90
2022-08-24T07:36:22.172Z,99.90
2022-08-24T07:38:52.279Z,99.90
2022-08-24T07:41:40.338Z,99.90
2022-08-24T07:44:08.125Z,99.90
2022-08-24T07:46:35.607Z,99.90
2022-08-24T07:49:10.961Z,99.90
2022-08-24T07:51:38.894Z,99.90
2022-08-24T07:54:12.196Z,99.90
2022-08-24T07:56:40.448Z,99.90
2022-08-24T07:59:11.045Z,99.90
2022-08-24T08:01:39.965Z,99.90
2022-08-24T08:04:06.777Z,99.90
2022-08-24T08:06:33.512Z,99.90
2022-08-24T08:09:00.199Z,99.90
2022-08-24T08:11:26.859Z,99.90
2022-08-24T08:13:54.322Z,99.90
2022-08-24T08:16:21.754Z,99.90
2022-08-24T08:18:52.411Z,99.90
2022-08-24T08:21:51.054Z,99.90
2022-08-24T08:24:20.690Z,99.90
2022-08-24T08:26:52.224Z,99.90
2022-08-24T08:29:20.113Z,99.90
2022-08-24T08:31:47.389Z,99.90
2022-08-24T08:34:14.263Z,99.90
2022-08-24T08:36:41.702Z,99.90
2022-08-24T08:39:10.892Z,99.90
2022-08-24T08:41:46.708Z,99.90
2022-08-24T08:44:33.196Z,99.90
2022-08-24T08:47:21.341Z,99.90
2022-08-24T08:50:05.383Z,99.90
2022-08-24T08:53:06.237Z,99.90
2022-08-24T08:56:04.629Z,99.90
2022-08-24T08:58:57.428Z,99.90
2022-08-24T09:01:59.104Z,99.90
2022-08-24T09:04:59.683Z,99.90
2022-08-24T09:07:48.899Z,99.90
2022-08-24T09:10:40.577Z,99.90
2022-08-24T09:13:35.297Z,99.90
2022-08-24T09:16:31.588Z,99.90
2022-08-24T09:19:13.527Z,99.90
2022-08-24T09:22:14.590Z,99.90
2022-08-24T09:24:59.011Z,99.90
2022-08-24T09:27:32.569Z,99.90
2022-08-24T09:30:14.883Z,99.90
2022-08-24T09:33:03.268Z,99.90
2022-08-24T09:35:45.071Z,99.90
2022-08-24T09:38:40.001Z,99.90
2022-08-24T09:41:21.764Z,99.90
2022-08-24T09:44:14.217Z,99.90
2022-08-24T09:47:02.047Z,99.90
2022-08-24T09:50:16.319Z,99.90
2022-08-24T09:53:01.904Z,99.90
2022-08-24T09:55:34.572Z,99.90
2022-08-24T09:58:29.465Z,99.90
2022-08-24T10:01:02.433Z,99.90
2022-08-24T10:03:38.354Z,99.90
2022-08-24T10:06:16.613Z,99.90
2022-08-24T10:09:14.411Z,99.90
2022-08-24T10:12:02.549Z,99.90
2022-08-24T10:14:51.113Z,99.90
2022-08-24T10:17:40.772Z,99.90
2022-08-24T10:20:25.559Z,99.90
2022-08-24T10:23:17.927Z,99.90
2022-08-24T10:25:56.957Z,99.90
2022-08-24T10:28:45.213Z,99.90
2022-08-24T10:31:19.132Z,99.90
2022-08-24T10:33:51.610Z,99.90
2022-08-24T10:36:30.770Z,99.90
2022-08-24T10:39:22.117Z,99.90
2022-08-24T10:42:37.533Z,99.90
2022-08-24T10:45:26.334Z,99.90
2022-08-24T10:48:45.449Z,99.90
2022-08-24T10:51:55.162Z,99.90
2022-08-24T10:54:23.503Z,99.90
2022-08-24T10:57:12.287Z,99.90
2022-08-24T11:00:18.185Z,99.90
2022-08-24T11:03:04.277Z,99.90
2022-08-24T11:05:40.961Z,99.90
2022-08-24T11:08:09.496Z,99.90
2022-08-24T11:10:40.116Z,99.90
2022-08-24T11:13:25.825Z,99.90
2022-08-24T11:15:55.740Z,99.90
2022-08-24T11:18:23.117Z,99.90
2022-08-24T11:20:52.661Z,99.90
2022-08-24T11:23:31.035Z,99.90
2022-08-24T11:26:03.770Z,99.90
2022-08-24T11:28:38.962Z,99.90
2022-08-24T11:31:11.762Z,99.90
2022-08-24T11:33:49.674Z,99.90
2022-08-24T11:36:23.501Z,99.90
2022-08-24T11:39:09.525Z,99.90
2022-08-24T11:42:01.308Z,99.90
2022-08-24T11:44:27.963Z,99.90
2022-08-24T11:47:15.378Z,99.90
2022-08-24T11:50:27.642Z,99.90
2022-08-24T11:53:14.052Z,99.90
2022-08-24T11:56:03.318Z,99.90
2022-08-24T11:58:52.441Z,99.90
2022-08-24T12:01:35.638Z,99.90
2022-08-24T12:04:29.130Z,99.90
2022-08-24T12:07:20.202Z,99.90
2022-08-24T12:09:58.641Z,99.90
2022-08-24T12:12:35.277Z,99.90
2022-08-24T12:15:17.841Z,99.90
2022-08-24T12:18:02.805Z,99.90
2022-08-24T12:20:38.461Z,99.90
2022-08-24T12:23:20.633Z,99.90
2022-08-24T12:26:03.375Z,99.90
2022-08-24T12:28:53.661Z,99.90
2022-08-24T12:31:36.194Z,99.90
2022-08-24T12:34:11.495Z,99.90
2022-08-24T12:36:53.324Z,99.90
2022-08-24T12:39:25.829Z,99.90
2022-08-24T12:42:05.280Z,99.90
2022-08-24T12:44:49.357Z,99.90
2022-08-24T12:47:32.922Z,99.90
2022-08-24T12:50:10.350Z,99.90
2022-08-24T12:52:57.674Z,99.90
2022-08-24T12:55:53.905Z,99.90
2022-08-24T12:58:53.862Z,99.90
2022-08-24T13:01:26.421Z,99.90
2022-08-24T13:04:07.421Z,99.90
2022-08-24T13:07:01.731Z,99.90
2022-08-24T13:09:34.970Z,99.90
2022-08-24T13:12:30.644Z,99.90
2022-08-24T13:15:19.755Z,99.90
2022-08-24T13:17:47.104Z,99.90
2022-08-24T13:20:31.385Z,99.90
2022-08-24T13:23:13.621Z,99.90
2022-08-24T13:26:17.785Z,99.90
2022-08-24T13:28:47.768Z,99.90
2022-08-24T13:31:18.408Z,99.90
2022-08-24T13:33:51.212Z,99.90
2022-08-24T13:36:42.600Z,99.90
2022-08-24T13:39:18.674Z,99.90
2022-08-24T13:42:26.258Z,99.90
2022-08-24T13:45:23.742Z,99.90
2022-08-24T13:48:08.936Z,99.90
2022-08-24T13:50:41.675Z,99.90
2022-08-24T13:53:26.979Z,99.90
2022-08-24T13:56:33.236Z,99.90
2022-08-24T13:59:18.170Z,99.90
2022-08-24T14:02:21.169Z,99.90
2022-08-24T14:04:57.089Z,99.90
2022-08-24T14:07:48.575Z,99.90
2022-08-24T14:10:42.168Z,99.90
2022-08-24T14:13:25.881Z,99.90
2022-08-24T14:16:23.911Z,99.90
2022-08-24T14:19:06.805Z,99.90
2022-08-24T14:21:44.951Z,99.90
2022-08-24T14:24:25.666Z,99.90
2022-08-24T14:27:02.002Z,99.90
2022-08-24T14:29:31.013Z,99.90
2022-08-24T14:32:11.922Z,99.90
2022-08-24T14:34:44.896Z,99.90
2022-08-24T14:37:14.494Z,99.90
2022-08-24T14:39:58.205Z,99.90
2022-08-24T14:42:58.531Z,99.90
2022-08-24T14:46:02.912Z,99.90
2022-08-24T14:48:50.718Z,99.90
2022-08-24T14:51:46.719Z,99.90
2022-08-24T14:54:25.283Z,99.90
2022-08-24T14:57:27.400Z,99.90
2022-08-24T15:00:19.365Z,99.90
2022-08-24T15:03:12.096Z,99.90
2022-08-24T15:06:03.822Z,99.90
2022-08-24T15:08:47.512Z,99.90
2022-08-24T15:11:21.298Z,99.90
2022-08-24T15:13:54.363Z,99.90
2022-08-24T15:16:54.221Z,99.90
2022-08-24T15:19:35.596Z,99.90
2022-08-24T15:22:07.670Z,99.90
2022-08-24T15:25:06.001Z,99.90
2022-08-24T15:27:48.127Z,99.90
2022-08-24T15:30:23.595Z,99.90
2022-08-24T15:33:07.680Z,99.90
2022-08-24T15:35:36.189Z,99.90
2022-08-24T15:38:23.369Z,99.90
2022-08-24T15:41:14.773Z,99.90
2022-08-24T15:43:47.101Z,99.90
2022-08-24T15:46:18.385Z,99.90
2022-08-24T15:48:47.914Z,99.90
2022-08-24T15:51:35.937Z,99.90
2022-08-24T15:54:31.377Z,99.90
2022-08-24T15:57:01.670Z,97.90
2022-08-24T15:59:39.374Z,97.60
2022-08-24T16:02:30.342Z,98.00
2022-08-24T16:05:21.422Z,97.20
2022-08-24T16:08:02.768Z,96.60
2022-08-24T16:10:34.572Z,96.40
2022-08-24T16:13:19.041Z,96.30
2022-08-24T16:16:11.031Z,95.50
2022-08-24T16:18:53.202Z,97.00
2022-08-24T16:21:47.462Z,96.30
2022-08-24T16:24:28.384Z,96.10
2022-08-24T16:26:59.609Z,96.50
2022-08-24T16:29:39.000Z,94.10
2022-08-24T16:32:30.736Z,93.90
2022-08-24T16:35:14.433Z,93.60
2022-08-24T16:37:41.121Z,94.10
2022-08-24T16:40:09.136Z,93.70
2022-08-24T16:42:36.869Z,93.90
2022-08-24T16:45:10.125Z,94.00
2022-08-24T16:47:37.457Z,94.60
2022-08-24T16:50:05.788Z,94.60
2022-08-24T16:52:32.500Z,94.10
2022-08-24T16:55:01.390Z,94.70
2022-08-24T16:57:30.960Z,95.30
2022-08-24T16:59:57.774Z,95.00
2022-08-24T17:02:27.447Z,97.60
2022-08-24T17:04:54.758Z,96.50
2022-08-24T17:07:26.825Z,97.10
2022-08-24T17:09:55.857Z,97.20
2022-08-24T17:12:23.477Z,98.30
2022-08-24T17:14:50.133Z,98.50
2022-08-24T17:17:21.558Z,99.40
2022-08-24T17:19:54.415Z,99.80
2022-08-24T17:22:22.885Z,99.90
2022-08-24T17:24:50.284Z,99.90
2022-08-24T17:27:18.609Z,99.90
2022-08-24T17:29:45.962Z,99.90
2022-08-24T17:32:13.106Z,99.90
2022-08-24T17:34:40.886Z,99.90
2022-08-24T17:37:08.349Z,99.90
2022-08-24T17:39:35.151Z,99.90
2022-08-24T17:42:03.500Z,99.90
2022-08-24T17:44:33.512Z,99.90
2022-08-24T17:47:01.188Z,99.90
2022-08-24T17:49:28.094Z,99.90
2022-08-24T17:51:55.191Z,99.90
2022-08-24T17:54:22.511Z,99.90
2022-08-24T17:56:50.777Z,99.90
2022-08-24T17:59:25.742Z,99.90
2022-08-24T18:02:12.565Z,99.90
2022-08-24T18:04:40.359Z,99.90
2022-08-24T18:07:11.897Z,99.90
2022-08-24T18:09:50.293Z,99.90
2022-08-24T18:12:19.527Z,99.90
2022-08-24T18:14:46.459Z,99.90
2022-08-24T18:17:21.088Z,99.90
2022-08-24T18:19:52.769Z,99.90
2022-08-24T18:22:19.537Z,99.90
2022-08-24T18:24:46.240Z,99.90
2022-08-24T18:27:24.140Z,99.90
2022-08-24T18:30:01.400Z,99.90
2022-08-24T18:32:31.203Z,99.90
2022-08-24T18:34:58.989Z,99.90
2022-08-24T18:37:25.880Z,99.90
2022-08-24T18:39:52.694Z,99.90
2022-08-24T18:42:19.682Z,99.90
2022-08-24T18:44:47.146Z,99.90
2022-08-24T18:47:13.869Z,99.90
2022-08-24T18:49:40.549Z,99.90
2022-08-24T18:52:10.273Z,99.90
2022-08-24T18:54:41.477Z,99.90
2022-08-24T18:57:08.723Z,99.90
2022-08-24T18:59:36.578Z,99.90
2022-08-24T19:02:35.429Z,99.90
2022-08-24T19:05:19.168Z,99.90
2022-08-24T19:07:49.265Z,99.90
2022-08-24T19:10:19.265Z,99.90
2022-08-24T19:12:49.569Z,99.90
2022-08-24T19:15:37.813Z,99.90
2022-08-24T19:18:05.459Z,99.90
2022-08-24T19:20:33.720Z,99.90
2022-08-24T19:23:10.584Z,99.90
2022-08-24T19:25:39.994Z,99.90
2022-08-24T19:28:07.253Z,99.90
2022-08-24T19:30:34.428Z,99.90
2022-08-24T19:33:02.146Z,99.90
2022-08-24T19:35:32.631Z,99.90
2022-08-24T19:37:59.412Z,99.90
2022-08-24T19:40:26.485Z,99.90
2022-08-24T19:42:54.651Z,99.90
2022-08-24T19:45:43.434Z,99.90
2022-08-24T19:48:11.910Z,99.90
2022-08-24T19:50:38.855Z,99.90
2022-08-24T19:53:06.729Z,99.90
2022-08-24T19:55:33.784Z,99.90
2022-08-24T19:58:23.657Z,99.90
2022-08-24T20:00:57.419Z,99.90
2022-08-24T20:03:24.652Z,99.90
2022-08-24T20:05:51.391Z,99.90
2022-08-24T20:08:19.161Z,99.90
2022-08-24T20:10:45.866Z,99.90
2022-08-24T20:13:12.815Z,99.90
2022-08-24T20:15:39.585Z,99.90
2022-08-24T20:18:06.417Z,99.90
2022-08-24T20:20:33.175Z,99.90
2022-08-24T20:23:06.101Z,99.90
2022-08-24T20:25:39.455Z,99.90
2022-08-24T20:28:28.211Z,99.90
2022-08-24T20:30:53.973Z,99.90
2022-08-24T20:33:21.291Z,99.90
2022-08-24T20:35:47.995Z,99.90
2022-08-24T20:38:18.266Z,99.90
2022-08-24T20:40:45.126Z,99.90
2022-08-24T20:43:12.712Z,99.90
2022-08-24T20:45:41.266Z,99.90
2022-08-24T20:48:11.867Z,99.90
2022-08-24T20:50:38.991Z,99.90
2022-08-24T20:53:06.223Z,99.90
2022-08-24T20:55:33.284Z,99.90
2022-08-24T20:58:03.061Z,99.90
2022-08-24T21:00:30.161Z,99.90
2022-08-24T21:02:58.090Z,99.90
2022-08-24T21:05:25.476Z,99.90
2022-08-24T21:07:52.221Z,99.90
2022-08-24T21:10:24.855Z,99.90
2022-08-24T21:12:53.707Z,99.90
2022-08-24T21:15:22.366Z,99.90
2022-08-24T21:17:49.348Z,99.90
2022-08-24T21:20:16.486Z,99.90
2022-08-24T21:22:45.937Z,99.90
2022-08-24T21:25:14.475Z,99.90
2022-08-24T21:27:43.994Z,99.90
2022-08-24T21:30:13.776Z,99.90
2022-08-24T21:32:59.328Z,99.90
2022-08-24T21:35:26.361Z,99.90
2022-08-24T21:37:53.294Z,99.90
2022-08-24T21:40:21.813Z,99.90
2022-08-24T21:42:49.195Z,99.90
2022-08-24T21:45:16.178Z,99.90
2022-08-24T21:47:43.294Z,99.90
2022-08-24T21:50:10.340Z,99.90
2022-08-24T21:52:37.608Z,99.90
2022-08-24T21:55:05.596Z,99.90
2022-08-24T21:57:32.266Z,99.90
2022-08-24T21:59:59.152Z,99.90
2022-08-24T22:02:26.245Z,99.90
2022-08-24T22:04:56.707Z,99.90
2022-08-24T22:07:26.683Z,99.90
2022-08-24T22:09:53.536Z,99.90
2022-08-24T22:12:20.193Z,99.90
2022-08-24T22:14:46.866Z,99.90
2022-08-24T22:17:13.620Z,99.90
2022-08-24T22:19:40.366Z,99.90
2022-08-24T22:22:07.045Z,99.90
2022-08-24T22:24:33.865Z,99.90
2022-08-24T22:27:00.536Z,99.90
2022-08-24T22:29:27.305Z,99.90
2022-08-24T22:31:54.054Z,99.90
2022-08-24T22:34:21.306Z,99.90
2022-08-24T22:36:48.799Z,99.90
2022-08-24T22:39:16.446Z,99.90
2022-08-24T22:41:43.943Z,99.90
2022-08-24T22:44:20.130Z,99.90
2022-08-24T22:46:56.185Z,99.90
2022-08-24T22:49:27.883Z,99.90
2022-08-24T22:51:54.827Z,99.90
2022-08-24T22:54:23.051Z,99.90
2022-08-24T22:56:53.030Z,99.90
2022-08-24T22:59:26.609Z,99.90
2022-08-24T23:01:55.633Z,99.90
2022-08-24T23:04:29.243Z,99.90
2022-08-24T23:06:56.031Z,99.90
2022-08-24T23:09:23.391Z,99.90
2022-08-24T23:11:52.284Z,99.90
2022-08-24T23:14:19.847Z,99.90
2022-08-24T23:16:49.892Z,99.90
2022-08-24T23:19:37.263Z,99.90
2022-08-24T23:22:06.177Z,99.90
2022-08-24T23:24:33.572Z,99.90
2022-08-24T23:27:01.838Z,99.90
2022-08-24T23:29:28.666Z,99.90
2022-08-24T23:31:55.387Z,99.90
2022-08-24T23:34:22.572Z,99.90
2022-08-24T23:36:50.199Z,99.90
2022-08-24T23:39:17.313Z,99.90
2022-08-24T23:41:46.325Z,99.90
2022-08-24T23:44:20.690Z,99.90
2022-08-24T23:46:47.847Z,99.90
2022-08-24T23:49:16.942Z,99.90
2022-08-24T23:51:43.786Z,99.90
2022-08-24T23:54:10.888Z,99.90
2022-08-24T23:56:40.161Z,99.90
2022-08-24T23:59:10.699Z,99.90
